Time;durP1;ratioP1;P1;durP2;ratioP2;P2;SDS_P1;SDS_P2;PMS_P1;PMS_P2;Temp;Humidity;BMP_temperature;BMP_pressure;BME280_temperature;BME280_humidity;BME280_pressure;Samples;Min_cycle;Max_cycle;Signal;HPM_P1;HPM_P2
2023/07/20 00:02:08;;;;;;;7.00;6.50;;;;;;;15.02;100.00;96672.47;5076323;28;20289;-65
2023/07/20 00:04:36;;;;;;;6.27;5.87;;;;;;;15.03;100.00;96677.59;4962111;28;20321;-67
2023/07/20 00:07:05;;;;;;;6.13;5.70;;;;;;;14.98;100.00;96680.13;5079290;28;20229;-64
2023/07/20 00:09:32;;;;;;;7.33;6.63;;;;;;;14.85;100.00;96654.41;5048707;28;20206;-63
2023/07/20 00:12:00;;;;;;;7.37;6.50;;;;;;;14.96;100.00;96673.38;5079228;28;20275;-64
2023/07/20 00:14:28;;;;;;;6.60;5.97;;;;;;;14.94;100.00;96668.25;5068284;28;20329;-65
2023/07/20 00:16:56;;;;;;;7.23;6.53;;;;;;;14.93;100.00;96679.16;5076724;28;20797;-66
2023/07/20 00:19:26;;;;;;;7.53;6.77;;;;;;;14.84;100.00;96675.97;5074349;28;20207;-65
2023/07/20 00:21:54;;;;;;;6.93;5.43;;;;;;;14.84;100.00;96668.81;5074387;28;20201;-65
2023/07/20 00:24:22;;;;;;;6.40;5.87;;;;;;;14.82;100.00;96672.72;5067782;28;20195;-66
2023/07/20 00:26:50;;;;;;;8.47;6.10;;;;;;;14.77;100.00;96670.72;5075486;28;20220;-64
2023/07/20 00:29:17;;;;;;;6.77;6.17;;;;;;;14.75;100.00;96675.44;5025516;28;20209;-64
2023/07/20 00:31:45;;;;;;;10.30;6.27;;;;;;;14.71;100.00;96672.44;5076988;28;20704;-63
2023/07/20 00:34:14;;;;;;;6.23;5.73;;;;;;;14.72;100.00;96673.22;4962752;28;20802;-64
2023/07/20 00:36:43;;;;;;;6.63;6.03;;;;;;;14.60;100.00;96663.28;5073703;28;20263;-64
2023/07/20 00:39:11;;;;;;;6.17;5.50;;;;;;;14.62;100.00;96668.41;5073481;28;20209;-63
2023/07/20 00:41:39;;;;;;;6.20;5.70;;;;;;;14.33;100.00;96644.13;5071034;28;20198;-64
2023/07/20 00:44:07;;;;;;;6.70;5.97;;;;;;;14.51;100.00;96672.63;5070682;28;20210;-65
2023/07/20 00:46:34;;;;;;;5.90;5.40;;;;;;;14.51;100.00;96674.47;5077119;28;20244;-63
2023/07/20 00:49:02;;;;;;;6.90;6.30;;;;;;;14.51;100.00;96680.63;5059696;28;20206;-63
2023/07/20 00:51:30;;;;;;;7.10;6.43;;;;;;;14.43;100.00;96671.06;5075928;28;20679;-64
2023/07/20 00:53:59;;;;;;;5.83;5.43;;;;;;;14.52;100.00;96674.25;5070002;28;20435;-64
2023/07/20 00:56:27;;;;;;;6.13;5.67;;;;;;;14.58;100.00;96668.03;5014084;28;21665;-66
2023/07/20 00:58:55;;;;;;;6.43;5.93;;;;;;;14.62;100.00;96663.88;5072910;28;20210;-64
2023/07/20 01:01:23;;;;;;;7.50;5.53;;;;;;;14.58;100.00;96673.38;5031369;28;20719;-66
2023/07/20 01:03:51;;;;;;;6.07;5.57;;;;;;;14.68;100.00;96678.19;5068450;28;20198;-65
2023/07/20 01:06:27;;;;;;;5.90;5.30;;;;;;;14.62;100.00;96677.22;4993842;28;20339;-66
2023/07/20 01:09:06;;;;;;;7.57;5.47;;;;;;;14.57;100.00;96681.56;5035029;28;20528;-63
2023/07/20 01:11:38;;;;;;;6.43;5.73;;;;;;;14.58;100.00;96675.19;5060366;28;20232;-63
2023/07/20 01:14:06;;;;;;;6.37;5.73;;;;;;;14.59;100.00;96668.84;5062239;28;20304;-66
2023/07/20 01:16:34;;;;;;;5.57;5.07;;;;;;;14.55;100.00;96678.31;5077006;28;20339;-63
2023/07/20 01:19:02;;;;;;;5.97;5.40;;;;;;;14.64;100.00;96677.00;5072316;28;20225;-66
2023/07/20 01:21:35;;;;;;;5.83;5.43;;;;;;;14.68;100.00;96667.53;5016241;28;20728;-66
2023/07/20 01:24:28;;;;;;;5.97;5.40;;;;;;;14.62;100.00;96661.22;5073822;28;20210;-63
2023/07/20 01:27:17;;;;;;;6.07;5.60;;;;;;;14.73;100.00;96650.88;5069915;28;20305;-64
2023/07/20 01:30:01;;;;;;;6.27;5.23;;;;;;;14.69;100.00;96658.47;5068427;28;20639;-65
2023/07/20 01:32:32;;;;;;;5.93;5.43;;;;;;;14.71;100.00;96661.75;5075059;28;20222;-64
2023/07/20 01:35:00;;;;;;;8.87;5.70;;;;;;;14.62;100.00;96663.88;5038885;28;20240;-67
2023/07/20 01:37:29;;;;;;;6.00;5.07;;;;;;;14.64;100.00;96670.84;5061183;28;20295;-64
2023/07/20 01:39:58;;;;;;;6.23;5.63;;;;;;;14.63;100.00;96675.38;5000307;28;21935;-66
2023/07/20 01:42:26;;;;;;;5.63;5.13;;;;;;;14.63;100.00;96664.72;5037883;28;20674;-64
2023/07/20 01:44:53;;;;;;;6.83;6.13;;;;;;;14.65;100.00;96670.63;5074535;28;20241;-68
2023/07/20 01:47:21;;;;;;;5.40;5.00;;;;;;;14.64;100.00;96660.19;5075778;28;20275;-65
2023/07/20 01:49:50;;;;;;;5.70;5.20;;;;;;;14.60;100.00;96662.50;5073497;28;20285;-66
2023/07/20 01:52:18;;;;;;;5.37;4.87;;;;;;;14.57;100.00;96662.91;5052912;28;20313;-64
2023/07/20 01:54:45;;;;;;;6.20;5.50;;;;;;;14.58;100.00;96661.88;5073171;28;20198;-67
2023/07/20 01:57:13;;;;;;;6.47;5.83;;;;;;;14.50;100.00;96660.34;5073673;28;20343;-64
2023/07/20 01:59:40;;;;;;;5.57;5.27;;;;;;;14.50;100.00;96662.16;5082102;28;20285;-69
2023/07/20 02:02:09;;;;;;;5.63;5.23;;;;;;;14.58;100.00;96664.53;5075682;28;20662;-65
2023/07/20 02:04:36;;;;;;;6.07;5.57;;;;;;;14.64;100.00;96661.00;5059906;28;20742;-68
2023/07/20 02:07:06;;;;;;;6.30;5.70;;;;;;;14.71;100.00;96656.44;5050400;28;20222;-64
2023/07/20 02:09:34;;;;;;;6.23;5.73;;;;;;;14.76;100.00;96655.75;5063919;28;20226;-66
2023/07/20 02:12:01;;;;;;;7.00;6.30;;;;;;;14.80;100.00;96664.94;5032305;28;20214;-65
2023/07/20 02:14:29;;;;;;;6.53;5.73;;;;;;;14.82;100.00;96681.53;5078774;28;20243;-66
2023/07/20 02:16:59;;;;;;;6.63;6.03;;;;;;;14.78;100.00;96688.38;4980295;28;20315;-65
2023/07/20 02:19:27;;;;;;;6.90;6.10;;;;;;;14.90;100.00;96689.25;5077674;28;20209;-65
2023/07/20 02:21:54;;;;;;;6.20;5.70;;;;;;;14.95;100.00;96696.53;5073077;28;20289;-65
2023/07/20 02:24:24;;;;;;;6.67;6.13;;;;;;;15.04;100.00;96686.41;5081389;28;20237;-64
2023/07/20 02:26:52;;;;;;;6.13;5.60;;;;;;;15.11;100.00;96689.00;5070687;28;20322;-64
2023/07/20 02:29:20;;;;;;;6.53;5.80;;;;;;;15.11;100.00;96672.97;5075962;28;20198;-63
2023/07/20 02:31:48;;;;;;;7.30;5.60;;;;;;;15.12;100.00;96667.41;5077860;28;20334;-64
2023/07/20 02:34:15;;;;;;;6.40;5.93;;;;;;;15.01;100.00;96661.00;5076665;28;20890;-64
2023/07/20 02:36:43;;;;;;;5.60;5.20;;;;;;;14.87;100.00;96671.00;5068772;28;20275;-64
2023/07/20 02:39:11;;;;;;;7.60;5.90;;;;;;;14.82;100.00;96670.88;5069041;28;20322;-63
2023/07/20 02:41:40;;;;;;;5.53;5.10;;;;;;;14.76;100.00;96664.56;5020075;28;20318;-65
2023/07/20 02:44:08;;;;;;;6.30;5.07;;;;;;;14.76;100.00;96675.25;5070793;28;20198;-67
2023/07/20 02:46:36;;;;;;;5.57;5.17;;;;;;;14.65;100.00;96678.63;5074545;28;20321;-65
2023/07/20 02:49:04;;;;;;;6.03;5.57;;;;;;;14.72;100.00;96687.41;5075121;28;20203;-66
2023/07/20 02:51:31;;;;;;;6.13;5.53;;;;;;;14.69;100.00;96679.81;4972729;28;20545;-64
2023/07/20 02:54:00;;;;;;;5.73;5.20;;;;;;;14.64;100.00;96685.00;5076067;28;20258;-63
2023/07/20 02:56:28;;;;;;;6.50;5.40;;;;;;;14.67;100.00;96692.56;5079019;28;20246;-64
2023/07/20 02:58:57;;;;;;;6.47;5.70;;;;;;;14.63;100.00;96696.69;5077395;28;21139;-64
2023/07/20 03:01:29;;;;;;;7.93;6.73;;;;;;;14.69;100.00;96694.97;5069823;28;20199;-65
2023/07/20 03:03:57;;;;;;;6.53;5.90;;;;;;;14.69;100.00;96697.66;5073905;28;20210;-66
2023/07/20 03:06:25;;;;;;;7.07;5.80;;;;;;;14.64;100.00;96692.16;5074534;28;20221;-64
2023/07/20 03:08:53;;;;;;;6.53;5.93;;;;;;;14.62;100.00;96692.41;5081876;28;20692;-65
2023/07/20 03:11:21;;;;;;;7.37;6.47;;;;;;;14.64;100.00;96694.84;5074122;28;20211;-65
2023/07/20 03:13:49;;;;;;;6.37;5.77;;;;;;;14.71;100.00;96693.75;5078383;28;20230;-65
2023/07/20 03:16:19;;;;;;;6.33;5.77;;;;;;;14.79;100.00;96699.84;5027030;28;20230;-63
2023/07/20 03:18:48;;;;;;;7.30;5.90;;;;;;;14.82;100.00;96694.88;5082410;28;20229;-64
2023/07/20 03:21:15;;;;;;;6.93;6.30;;;;;;;14.79;100.00;96692.66;5071351;28;21763;-65
2023/07/20 03:23:43;;;;;;;7.57;6.83;;;;;;;14.75;100.00;96697.59;5076026;28;20756;-66
2023/07/20 03:26:11;;;;;;;7.03;6.40;;;;;;;14.82;100.00;96702.88;4949845;28;20228;-64
2023/07/20 03:28:39;;;;;;;6.27;5.70;;;;;;;14.88;100.00;96698.47;5079079;28;20222;-63
2023/07/20 03:31:07;;;;;;;6.57;6.07;;;;;;;14.88;100.00;96687.81;5076755;28;20234;-65
2023/07/20 03:33:36;;;;;;;6.87;5.87;;;;;;;14.88;100.00;96683.31;5066282;28;20230;-65
2023/07/20 03:36:04;;;;;;;6.67;6.13;;;;;;;14.90;100.00;96691.06;5073213;28;20627;-63
2023/07/20 03:38:32;;;;;;;10.60;7.93;;;;;;;14.88;100.00;96685.16;5080396;28;20297;-63
2023/07/20 03:41:01;;;;;;;6.63;6.03;;;;;;;14.88;100.00;96688.66;5076709;28;20202;-64
2023/07/20 03:43:29;;;;;;;6.90;6.30;;;;;;;14.88;100.00;96685.97;5076916;28;20290;-64
2023/07/20 03:45:57;;;;;;;5.80;5.40;;;;;;;14.87;100.00;96692.34;5064634;28;20360;-63
2023/07/20 03:48:25;;;;;;;8.37;6.13;;;;;;;14.93;100.00;96711.97;5079566;28;20605;-65
2023/07/20 03:50:55;;;;;;;7.23;6.07;;;;;;;14.95;100.00;96704.56;5071878;28;20288;-67
2023/07/20 03:53:23;;;;;;;5.80;5.40;;;;;;;14.98;100.00;96698.78;5078059;28;20318;-63
2023/07/20 03:55:52;;;;;;;6.37;5.90;;;;;;;14.94;100.00;96697.59;5076691;28;20289;-64
2023/07/20 03:58:21;;;;;;;5.93;5.43;;;;;;;15.04;100.00;96707.72;5078100;28;20289;-67
2023/07/20 04:00:50;;;;;;;6.10;5.57;;;;;;;15.10;100.00;96708.69;4971911;28;20309;-64
2023/07/20 04:03:18;;;;;;;6.73;6.23;;;;;;;15.16;100.00;96715.81;5077170;28;20748;-64
2023/07/20 04:05:47;;;;;;;7.70;6.23;;;;;;;15.21;100.00;96721.28;5074491;28;20206;-65
2023/07/20 04:08:16;;;;;;;7.80;5.90;;;;;;;15.26;100.00;96710.75;5080139;28;20259;-67
2023/07/20 04:10:44;;;;;;;6.83;6.20;;;;;;;15.27;100.00;96711.56;5076389;28;20253;-64
2023/07/20 04:13:12;;;;;;;6.40;5.57;;;;;;;15.30;100.00;96716.44;5076622;28;20253;-62
2023/07/20 04:15:40;;;;;;;6.30;5.80;;;;;;;15.37;100.00;96725.19;5068538;28;20205;-65
2023/07/20 04:18:07;;;;;;;7.73;6.03;;;;;;;15.40;100.00;96721.25;5013346;28;21319;-63
2023/07/20 04:20:35;;;;;;;6.53;5.93;;;;;;;15.51;100.00;96717.81;5076457;28;20206;-64
2023/07/20 04:23:03;;;;;;;7.00;6.40;;;;;;;15.51;100.00;96723.16;5057307;28;20288;-64
2023/07/20 04:25:33;;;;;;;6.47;5.93;;;;;;;15.48;100.00;96724.41;5080826;28;20205;-64
2023/07/20 04:28:01;;;;;;;6.53;6.03;;;;;;;15.43;100.00;96707.44;5073828;28;20218;-65
2023/07/20 04:30:30;;;;;;;6.43;5.93;;;;;;;15.57;100.00;96721.44;4967574;28;21383;-65
2023/07/20 04:32:57;;;;;;;6.90;6.20;;;;;;;15.56;100.00;96719.81;5081838;28;20293;-64
2023/07/20 04:35:47;;;;;;;6.37;5.83;;;;;;;15.67;100.00;96716.34;5067115;28;20195;-68
2023/07/20 04:38:15;;;;;;;6.43;5.73;;;;;;;15.79;100.00;96724.41;5078512;28;20202;-65
2023/07/20 04:40:45;;;;;;;6.03;5.53;;;;;;;15.91;100.00;96719.91;5075350;28;20202;-65
2023/07/20 04:43:12;;;;;;;6.60;5.90;;;;;;;16.03;100.00;96713.75;5073229;28;20202;-65
2023/07/20 04:45:40;;;;;;;6.33;5.83;;;;;;;15.96;100.00;96705.03;5074363;28;20206;-65
2023/07/20 04:48:11;;;;;;;6.03;5.43;;;;;;;16.04;100.00;96694.00;5073997;28;20202;-65
2023/07/20 04:50:39;;;;;;;5.90;5.30;;;;;;;16.24;100.00;96707.03;5066286;28;20230;-65
2023/07/20 04:53:07;;;;;;;5.93;5.53;;;;;;;16.32;100.00;96706.72;5074573;28;20213;-66
2023/07/20 04:55:34;;;;;;;6.30;5.67;;;;;;;16.29;100.00;96701.00;5073759;28;20293;-65
2023/07/20 04:58:04;;;;;;;6.73;6.23;;;;;;;16.31;100.00;96701.59;5072664;28;20249;-65
2023/07/20 05:00:33;;;;;;;5.73;5.23;;;;;;;16.52;100.00;96705.53;4967465;28;21960;-67
2023/07/20 05:03:01;;;;;;;5.90;5.40;;;;;;;16.67;100.00;96704.22;5079929;28;20286;-66
2023/07/20 05:05:28;;;;;;;6.30;5.70;;;;;;;16.82;100.00;96701.88;5069616;28;20773;-65
2023/07/20 05:07:56;;;;;;;6.03;5.47;;;;;;;16.78;100.00;96706.09;5080338;28;20275;-64
2023/07/20 05:10:24;;;;;;;6.47;4.93;;;;;;;16.79;100.00;96676.41;5073931;28;20351;-68
2023/07/20 05:12:51;;;;;;;5.63;5.13;;;;;;;16.98;100.00;96707.56;5078625;28;20689;-66
2023/07/20 05:15:20;;;;;;;8.10;5.53;;;;;;;17.00;100.00;96708.16;5063497;28;20219;-67
2023/07/20 05:17:48;;;;;;;6.17;5.33;;;;;;;17.12;100.00;96719.66;5074810;28;20318;-66
2023/07/20 05:20:16;;;;;;;6.80;6.10;;;;;;;17.24;100.00;96710.75;5070223;28;20206;-68
2023/07/20 05:22:44;;;;;;;6.97;4.83;;;;;;;17.06;100.00;96709.91;5073572;28;20195;-65
2023/07/20 05:25:12;;;;;;;6.73;6.03;;;;;;;16.78;100.00;96701.53;5075012;28;20218;-68
2023/07/20 05:27:40;;;;;;;7.13;5.33;;;;;;;16.91;100.00;96713.84;5073814;28;20241;-65
2023/07/20 05:30:08;;;;;;;7.37;5.00;;;;;;;16.98;100.00;96708.41;5071475;28;20299;-66
2023/07/20 05:32:37;;;;;;;5.30;4.80;;;;;;;17.16;100.00;96714.63;5078540;28;20198;-65
2023/07/20 05:35:07;;;;;;;7.50;6.33;;;;;;;16.96;100.00;96688.25;5007822;28;21514;-66
2023/07/20 05:37:35;;;;;;;5.47;4.90;;;;;;;17.34;100.00;96719.81;5022388;28;20755;-66
2023/07/20 05:40:03;;;;;;;6.13;5.53;;;;;;;17.47;100.00;96712.53;5071937;28;20253;-68
2023/07/20 05:42:30;;;;;;;7.03;4.93;;;;;;;17.45;100.00;96710.09;5073366;28;20294;-64
2023/07/20 05:44:58;;;;;;;13.67;6.33;;;;;;;17.56;100.00;96719.13;5072029;28;20607;-66
2023/07/20 05:47:25;;;;;;;7.97;5.90;;;;;;;17.41;100.00;96706.25;5066540;28;20752;-66
2023/07/20 05:49:54;;;;;;;6.43;6.03;;;;;;;17.26;100.00;96717.50;5067634;28;20202;-68
2023/07/20 05:52:22;;;;;;;9.83;6.87;;;;;;;17.47;100.00;96715.19;5072435;28;20201;-67
2023/07/20 05:54:50;;;;;;;7.13;6.53;;;;;;;17.31;100.00;96714.09;5072510;28;20310;-65
2023/07/20 05:57:17;;;;;;;7.50;5.50;;;;;;;17.61;100.00;96721.88;5063243;28;20254;-65
2023/07/20 05:59:45;;;;;;;7.27;6.60;;;;;;;17.87;100.00;96724.22;5076957;28;20195;-67
2023/07/20 06:02:13;;;;;;;6.57;6.03;;;;;;;18.03;100.00;96720.75;5072861;28;20206;-65
2023/07/20 06:04:41;;;;;;;7.90;6.47;;;;;;;18.13;100.00;96725.47;5076108;28;20232;-68
2023/07/20 06:07:11;;;;;;;6.70;5.57;;;;;;;18.00;100.00;96723.09;4972489;28;20708;-65
2023/07/20 06:09:38;;;;;;;6.90;6.17;;;;;;;17.81;100.00;96726.00;5078114;28;20283;-65
2023/07/20 06:12:08;;;;;;;6.43;5.93;;;;;;;17.47;100.00;96724.06;5072574;28;20675;-65
2023/07/20 06:14:35;;;;;;;6.20;5.80;;;;;;;17.81;100.00;96726.00;5072923;28;20310;-65
2023/07/20 06:17:03;;;;;;;5.87;5.37;;;;;;;17.84;100.00;96722.81;5073166;28;20227;-67
2023/07/20 06:19:31;;;;;;;6.37;5.87;;;;;;;18.18;100.00;96722.88;5070374;28;20229;-67
2023/07/20 06:21:59;;;;;;;5.80;5.23;;;;;;;18.52;100.00;96724.69;5040096;28;20205;-66
2023/07/20 06:24:28;;;;;;;6.33;4.97;;;;;;;18.91;100.00;96729.25;5077534;28;20264;-65
2023/07/20 06:26:55;;;;;;;7.23;6.10;;;;;;;19.13;100.00;96731.16;5073761;28;20721;-66
2023/07/20 06:29:23;;;;;;;5.07;4.67;;;;;;;19.31;100.00;96730.00;5072190;28;20293;-65
2023/07/20 06:31:50;;;;;;;5.00;4.50;;;;;;;19.55;100.00;96729.75;5064821;28;20211;-65
2023/07/20 06:34:19;;;;;;;4.90;4.60;;;;;;;19.22;100.00;96737.72;5071634;28;20206;-65
2023/07/20 06:36:50;;;;;;;5.40;5.10;;;;;;;19.11;100.00;96730.59;4966552;28;20226;-65
2023/07/20 06:39:18;;;;;;;6.70;4.93;;;;;;;18.92;100.00;96728.19;5058837;28;20729;-64
2023/07/20 06:41:50;;;;;;;5.80;5.17;;;;;;;18.78;100.00;96736.63;5065734;28;20247;-64
2023/07/20 06:44:21;;;;;;;4.97;4.57;;;;;;;18.85;100.00;96728.38;5074451;28;20211;-66
2023/07/20 06:46:48;;;;;;;5.33;4.83;;;;;;;18.58;100.00;96728.28;5068342;28;20222;-66
2023/07/20 06:49:25;;;;;;;6.47;4.80;;;;;;;18.36;100.00;96729.03;5081595;28;20640;-65
2023/07/20 06:51:53;;;;;;;8.33;5.60;;;;;;;18.26;100.00;96728.88;5074742;28;20209;-65
2023/07/20 06:54:21;;;;;;;6.33;5.73;;;;;;;18.47;100.00;96727.31;5068680;28;20788;-64
2023/07/20 06:56:52;;;;;;;5.37;4.77;;;;;;;18.31;100.00;96735.13;5068592;28;20226;-65
2023/07/20 06:59:24;;;;;;;5.47;4.97;;;;;;;18.28;100.00;96741.00;5078798;28;20284;-65
2023/07/20 07:01:51;;;;;;;5.07;4.57;;;;;;;18.56;100.00;96735.75;5065512;28;20292;-66
2023/07/20 07:04:19;;;;;;;4.40;4.10;;;;;;;18.66;100.00;96734.03;5075597;28;20285;-67
2023/07/20 07:06:47;;;;;;;5.47;4.97;;;;;;;18.65;100.00;96743.16;5074971;28;20586;-66
2023/07/20 07:09:15;;;;;;;5.70;4.67;;;;;;;18.88;100.00;96740.50;5083267;28;20638;-65
2023/07/20 07:11:43;;;;;;;6.43;4.30;;;;;;;19.00;100.00;96733.16;4967591;28;20301;-67
2023/07/20 07:14:12;;;;;;;4.80;4.40;;;;;;;19.27;100.00;96737.78;5079718;28;20226;-66
2023/07/20 07:16:40;;;;;;;4.30;4.00;;;;;;;19.33;100.00;96734.09;5076737;28;20234;-65
2023/07/20 07:19:08;;;;;;;4.90;4.50;;;;;;;19.35;100.00;96733.84;5069536;28;20267;-65
2023/07/20 07:21:36;;;;;;;4.53;3.77;;;;;;;19.18;100.00;96737.41;5072246;28;20228;-65
2023/07/20 07:24:03;;;;;;;4.30;3.83;;;;;;;19.26;100.00;96738.84;5081214;28;20198;-67
2023/07/20 07:26:31;;;;;;;4.13;3.73;;;;;;;19.50;100.00;96742.06;5075081;28;20221;-67
2023/07/20 07:28:59;;;;;;;4.90;4.33;;;;;;;19.48;100.00;96735.31;5066779;28;20205;-66
2023/07/20 07:31:29;;;;;;;4.37;3.90;;;;;;;19.40;100.00;96735.75;5067452;28;20202;-64
2023/07/20 07:33:57;;;;;;;4.70;4.27;;;;;;;19.03;100.00;96739.91;5078333;28;20206;-67
2023/07/20 07:36:25;;;;;;;5.33;4.80;;;;;;;18.87;100.00;96741.56;5060881;28;20309;-65
2023/07/20 07:38:52;;;;;;;4.60;4.20;;;;;;;19.08;100.00;96743.44;5067220;28;20243;-65
2023/07/20 07:41:23;;;;;;;5.50;4.10;;;;;;;19.37;100.00;96742.47;5076312;28;20206;-67
2023/07/20 07:43:51;;;;;;;6.40;4.53;;;;;;;19.70;100.00;96742.53;5072264;28;20239;-65
2023/07/20 07:46:18;;;;;;;4.40;4.03;;;;;;;19.94;100.00;96745.72;4965237;28;20218;-67
2023/07/20 07:48:47;;;;;;;4.33;3.60;;;;;;;20.50;100.00;96734.59;5078854;28;20210;-64
2023/07/20 07:51:15;;;;;;;5.00;3.90;;;;;;;20.28;100.00;96739.31;5072124;28;20283;-65
2023/07/20 07:53:43;;;;;;;4.10;3.80;;;;;;;20.37;100.00;96732.38;5071083;28;20206;-66
2023/07/20 07:56:11;;;;;;;4.30;3.37;;;;;;;20.44;100.00;96735.63;5065823;28;20663;-66
2023/07/20 07:58:39;;;;;;;4.03;3.73;;;;;;;20.62;100.00;96736.28;5074529;28;20820;-67
2023/07/20 08:01:06;;;;;;;3.40;3.10;;;;;;;20.57;100.00;96738.94;5074358;28;20647;-64
2023/07/20 08:03:35;;;;;;;3.77;3.47;;;;;;;20.46;100.00;96744.25;5078797;28;20206;-66
2023/07/20 08:06:05;;;;;;;3.10;2.90;;;;;;;20.23;100.00;96742.75;5072526;28;20202;-64
2023/07/20 08:08:32;;;;;;;3.93;3.40;;;;;;;20.00;100.00;96749.28;5074460;28;20260;-64
2023/07/20 08:11:01;;;;;;;5.53;3.50;;;;;;;20.20;100.00;96762.88;5073498;28;20203;-64
2023/07/20 08:13:34;;;;;;;3.37;3.17;;;;;;;20.58;100.00;96751.31;5077685;28;20687;-65
2023/07/20 08:16:02;;;;;;;4.80;2.90;;;;;;;20.72;100.00;96736.34;5076264;28;20304;-65
2023/07/20 08:18:31;;;;;;;3.50;3.20;;;;;;;21.03;100.00;96744.63;5079424;28;20513;-66
2023/07/20 08:20:58;;;;;;;3.83;3.53;;;;;;;21.42;96.90;96746.09;4965664;28;20213;-65
2023/07/20 08:23:28;;;;;;;3.13;2.93;;;;;;;20.84;96.46;96749.66;5080638;28;20214;-66
2023/07/20 08:25:55;;;;;;;3.07;2.87;;;;;;;20.73;97.53;96750.63;5066381;28;20279;-64
2023/07/20 08:28:23;;;;;;;3.17;2.87;;;;;;;20.62;95.93;96764.00;5077185;28;20289;-66
2023/07/20 08:30:51;;;;;;;3.10;2.60;;;;;;;20.24;97.57;96768.56;5073451;28;20302;-68
2023/07/20 08:33:21;;;;;;;3.60;2.67;;;;;;;19.99;99.53;96766.50;5077985;28;20203;-67
2023/07/20 08:35:49;;;;;;;5.90;5.30;;;;;;;20.45;98.46;96761.47;5058025;28;20912;-64
2023/07/20 08:38:16;;;;;;;3.20;3.00;;;;;;;20.98;97.23;96749.97;5063032;28;20234;-66
2023/07/20 08:40:47;;;;;;;3.30;2.80;;;;;;;21.15;99.16;96757.06;5074036;28;20255;-64
2023/07/20 08:43:17;;;;;;;3.77;2.97;;;;;;;20.54;96.09;96756.44;5076610;28;20325;-66
2023/07/20 08:45:45;;;;;;;2.90;2.70;;;;;;;20.33;100.00;96758.97;5074269;28;20430;-65
2023/07/20 08:48:13;;;;;;;3.37;2.90;;;;;;;19.82;98.17;96761.97;5076285;28;20633;-65
2023/07/20 08:50:42;;;;;;;5.00;3.10;;;;;;;19.90;95.61;96764.25;4960474;28;20305;-65
2023/07/20 08:53:11;;;;;;;2.43;2.27;;;;;;;20.49;92.58;96764.47;5079891;28;20285;-65
2023/07/20 08:55:39;;;;;;;4.73;2.53;;;;;;;20.85;90.17;96753.97;5075041;28;20858;-64
2023/07/20 08:58:09;;;;;;;3.10;2.80;;;;;;;21.12;87.39;96755.69;5077642;28;20265;-63
2023/07/20 09:00:37;;;;;;;4.87;2.43;;;;;;;20.81;86.01;96755.53;5070109;28;20194;-66
2023/07/20 09:03:05;;;;;;;3.90;2.40;;;;;;;20.58;89.49;96760.22;5079423;28;20198;-65
2023/07/20 09:05:35;;;;;;;2.53;2.33;;;;;;;20.68;88.95;96757.59;5066681;28;20194;-66
2023/07/20 09:08:03;;;;;;;4.63;2.47;;;;;;;20.42;83.15;96761.16;5077958;28;20862;-65
2023/07/20 09:10:31;;;;;;;2.73;2.33;;;;;;;20.58;82.64;96749.47;5064854;28;20431;-65
2023/07/20 09:12:58;;;;;;;2.60;2.50;;;;;;;21.15;82.62;96746.28;5078901;28;20293;-64
2023/07/20 09:15:27;;;;;;;2.80;2.60;;;;;;;21.15;73.09;96757.06;5073440;28;20268;-64
2023/07/20 09:17:55;;;;;;;3.47;2.20;;;;;;;21.04;69.47;96759.72;5074145;28;20329;-65
2023/07/20 09:20:23;;;;;;;3.07;2.77;;;;;;;21.19;71.79;96740.09;5071487;28;20210;-67
2023/07/20 09:22:52;;;;;;;3.17;2.53;;;;;;;21.35;74.72;96754.44;5077731;28;20259;-64
2023/07/20 09:25:22;;;;;;;2.43;2.23;;;;;;;21.83;66.11;96750.81;4992353;28;21639;-65
2023/07/20 09:27:54;;;;;;;2.17;2.07;;;;;;;22.25;63.41;96751.66;5069347;28;21751;-65
2023/07/20 09:30:26;;;;;;;2.57;2.37;;;;;;;22.04;67.86;96754.34;5073775;28;20289;-66
2023/07/20 09:32:58;;;;;;;2.50;2.30;;;;;;;21.44;69.67;96757.44;5070687;28;20773;-64
2023/07/20 09:35:26;;;;;;;2.27;2.10;;;;;;;20.95;69.39;96756.69;5072272;28;20214;-66
2023/07/20 09:38:08;;;;;;;2.13;2.03;;;;;;;21.10;70.97;96758.66;5079136;28;20246;-64
2023/07/20 09:40:39;;;;;;;3.77;2.20;;;;;;;21.32;70.75;96764.94;5069997;28;20297;-64
2023/07/20 09:43:10;;;;;;;4.47;2.63;;;;;;;21.21;70.20;96750.63;5077592;28;20307;-64
2023/07/20 09:45:42;;;;;;;6.20;2.30;;;;;;;21.52;71.66;96753.41;5069223;28;20204;-65
2023/07/20 09:48:14;;;;;;;2.50;2.30;;;;;;;21.30;71.16;96750.94;5077843;28;20965;-64
2023/07/20 09:50:50;;;;;;;2.77;2.20;;;;;;;21.16;71.08;96746.00;5069753;28;20297;-65
2023/07/20 09:53:18;;;;;;;3.93;2.30;;;;;;;21.19;72.92;96750.06;5075222;28;20202;-64
2023/07/20 09:55:47;;;;;;;2.60;2.40;;;;;;;21.23;70.30;96745.78;5066924;28;20236;-65
2023/07/20 09:58:15;;;;;;;2.57;2.33;;;;;;;21.38;68.93;96745.03;5064951;28;20301;-65
2023/07/20 10:00:46;;;;;;;4.17;2.60;;;;;;;21.03;67.70;96725.78;4962017;28;20928;-64
2023/07/20 10:03:20;;;;;;;3.17;1.97;;;;;;;21.49;58.66;96746.66;5080805;28;20210;-65
2023/07/20 10:05:52;;;;;;;2.77;1.97;;;;;;;21.16;58.71;96750.59;5066120;28;20837;-64
2023/07/20 10:08:21;;;;;;;2.07;1.90;;;;;;;21.30;59.36;96746.34;5079823;28;20202;-63
2023/07/20 10:10:52;;;;;;;4.97;2.33;;;;;;;21.52;60.02;96748.03;5071778;28;20290;-65
2023/07/20 10:13:25;;;;;;;2.30;1.70;;;;;;;21.40;58.75;96746.38;5073637;28;20284;-64
2023/07/20 10:15:55;;;;;;;2.20;2.00;;;;;;;21.81;60.22;96739.50;5070525;28;20221;-65
2023/07/20 10:18:28;;;;;;;3.63;2.30;;;;;;;21.93;63.01;96742.75;5072981;28;20249;-66
2023/07/20 10:20:57;;;;;;;3.07;2.00;;;;;;;22.01;62.19;96732.50;5065666;28;20226;-65
2023/07/20 10:23:30;;;;;;;3.07;2.20;;;;;;;21.72;59.67;96733.81;5067127;28;20876;-65
2023/07/20 10:25:58;;;;;;;3.63;2.33;;;;;;;21.34;64.57;96725.88;5074487;28;21375;-65
2023/07/20 10:28:28;;;;;;;1.93;1.83;;;;;;;21.77;64.31;96733.00;5072114;28;20249;-65
2023/07/20 10:30:56;;;;;;;2.37;2.03;;;;;;;22.19;61.32;96729.28;5072206;28;20653;-65
2023/07/20 10:33:25;;;;;;;2.20;2.00;;;;;;;22.27;53.37;96739.50;5076702;28;20217;-64
2023/07/20 10:35:54;;;;;;;3.57;2.30;;;;;;;22.09;53.28;96730.06;4957775;28;20218;-64
2023/07/20 10:38:43;;;;;;;2.53;2.33;;;;;;;22.01;55.06;96727.91;5076564;28;20815;-66
2023/07/20 10:41:18;;;;;;;2.30;2.10;;;;;;;22.09;55.03;96723.84;5075074;28;20732;-65
2023/07/20 10:43:47;;;;;;;2.10;1.90;;;;;;;22.41;55.38;96726.28;5076019;28;20224;-65
2023/07/20 10:46:15;;;;;;;3.47;2.20;;;;;;;22.67;52.83;96714.66;5071187;28;20589;-64
2023/07/20 10:49:04;;;;;;;2.30;1.80;;;;;;;22.89;49.26;96713.50;5068124;28;20282;-63
2023/07/20 10:51:40;;;;;;;1.80;1.70;;;;;;;22.95;50.67;96705.09;5073624;28;20210;-66
2023/07/20 10:54:09;;;;;;;2.10;2.00;;;;;;;23.08;50.76;96714.53;5076456;28;20198;-63
2023/07/20 10:56:37;;;;;;;2.20;2.00;;;;;;;23.35;52.44;96707.94;5063792;28;20254;-65
2023/07/20 10:59:19;;;;;;;2.27;2.07;;;;;;;23.31;49.95;96708.78;5072597;28;20613;-63
2023/07/20 11:01:49;;;;;;;2.00;1.90;;;;;;;23.60;50.57;96711.56;5074181;28;20274;-64
2023/07/20 11:04:19;;;;;;;2.00;1.90;;;;;;;23.67;48.49;96711.25;5075722;28;20206;-66
2023/07/20 11:06:47;;;;;;;2.27;2.00;;;;;;;23.72;48.79;96702.31;4965858;28;20229;-64
2023/07/20 11:09:15;;;;;;;2.70;1.90;;;;;;;23.13;49.97;96700.19;5078260;28;20279;-64
2023/07/20 11:11:44;;;;;;;2.20;2.00;;;;;;;22.92;49.14;96694.84;5073737;28;20202;-64
2023/07/20 11:14:21;;;;;;;2.17;1.97;;;;;;;23.04;48.90;96710.75;5070882;28;20194;-62
2023/07/20 11:16:51;;;;;;;2.43;2.20;;;;;;;23.19;48.90;96706.34;5076831;28;20313;-65
2023/07/20 11:19:23;;;;;;;2.43;1.60;;;;;;;23.66;49.69;96690.72;5077924;28;20197;-63
2023/07/20 11:21:55;;;;;;;2.27;2.17;;;;;;;23.66;50.63;96696.91;5069926;28;20546;-64
2023/07/20 11:24:31;;;;;;;2.63;2.27;;;;;;;23.13;49.43;96700.19;5081274;28;20221;-64
2023/07/20 11:26:59;;;;;;;2.57;2.37;;;;;;;22.66;48.16;96704.94;5070471;28;20341;-65
2023/07/20 11:29:27;;;;;;;3.33;1.97;;;;;;;22.80;47.48;96700.56;5076683;28;20214;-64
2023/07/20 11:32:01;;;;;;;1.80;1.70;;;;;;;23.30;45.29;96697.16;5059514;28;20203;-66
2023/07/20 11:34:33;;;;;;;4.20;2.80;;;;;;;23.41;46.00;96682.50;5077180;28;20293;-65
2023/07/20 11:37:02;;;;;;;3.10;2.83;;;;;;;23.81;45.35;96690.59;4964443;28;20242;-65